sensor_id;sensor_type;location;lat;lon;timestamp;temperature;humidity
75688;HTU21D;64300;45.034;38.910;2022-12-22T00:01:55;3.71;101.67
75688;HTU21D;64300;45.034;38.910;2022-12-22T00:04:43;3.65;101.59
75688;HTU21D;64300;45.034;38.910;2022-12-22T00:07:28;3.58;101.57
75688;HTU21D;64300;45.034;38.910;2022-12-22T00:10:13;3.48;101.56
75688;HTU21D;64300;45.034;38.910;2022-12-22T00:12:57;3.39;101.65
75688;HTU21D;64300;45.034;38.910;2022-12-22T00:15:42;3.29;101.79
75688;HTU21D;64300;45.034;38.910;2022-12-22T00:18:29;3.18;101.79
75688;HTU21D;64300;45.034;38.910;2022-12-22T00:21:13;3.08;102.09
75688;HTU21D;64300;45.034;38.910;2022-12-22T00:23:59;2.98;102.25
75688;HTU21D;64300;45.034;38.910;2022-12-22T00:26:44;2.87;102.27
75688;HTU21D;64300;45.034;38.910;2022-12-22T00:29:36;2.76;102.50
75688;HTU21D;64300;45.034;38.910;2022-12-22T00:32:23;2.67;102.69
75688;HTU21D;64300;45.034;38.910;2022-12-22T00:35:14;2.59;103.05
75688;HTU21D;64300;45.034;38.910;2022-12-22T00:37:58;2.51;103.01
75688;HTU21D;64300;45.034;38.910;2022-12-22T00:40:43;2.42;103.10
75688;HTU21D;64300;45.034;38.910;2022-12-22T00:43:28;2.34;103.38
75688;HTU21D;64300;45.034;38.910;2022-12-22T00:46:14;2.27;103.50
75688;HTU21D;64300;45.034;38.910;2022-12-22T00:48:59;2.21;103.81
75688;HTU21D;64300;45.034;38.910;2022-12-22T00:51:44;2.16;103.83
75688;HTU21D;64300;45.034;38.910;2022-12-22T00:54:29;2.08;103.79
75688;HTU21D;64300;45.034;38.910;2022-12-22T00:57:16;1.98;104.01
75688;HTU21D;64300;45.034;38.910;2022-12-22T01:00:03;1.90;104.35
75688;HTU21D;64300;45.034;38.910;2022-12-22T01:02:48;1.86;104.54
75688;HTU21D;64300;45.034;38.910;2022-12-22T01:05:32;1.81;104.78
75688;HTU21D;64300;45.034;38.910;2022-12-22T01:08:17;1.81;104.92
75688;HTU21D;64300;45.034;38.910;2022-12-22T01:11:02;1.79;105.05
75688;HTU21D;64300;45.034;38.910;2022-12-22T01:13:46;1.77;105.13
75688;HTU21D;64300;45.034;38.910;2022-12-22T01:16:30;1.73;105.32
75688;HTU21D;64300;45.034;38.910;2022-12-22T01:19:15;1.71;105.34
75688;HTU21D;64300;45.034;38.910;2022-12-22T01:21:59;1.67;105.38
75688;HTU21D;64300;45.034;38.910;2022-12-22T01:24:44;1.65;105.43
75688;HTU21D;64300;45.034;38.910;2022-12-22T01:27:28;1.62;105.61
75688;HTU21D;64300;45.034;38.910;2022-12-22T01:30:13;1.60;105.66
75688;HTU21D;64300;45.034;38.910;2022-12-22T01:32:57;1.57;105.81
75688;HTU21D;64300;45.034;38.910;2022-12-22T01:35:41;1.54;106.07
75688;HTU21D;64300;45.034;38.910;2022-12-22T01:38:26;1.55;106.25
75688;HTU21D;64300;45.034;38.910;2022-12-22T01:41:16;1.54;106.28
75688;HTU21D;64300;45.034;38.910;2022-12-22T01:44:14;1.53;106.54
75688;HTU21D;64300;45.034;38.910;2022-12-22T01:50:16;1.54;106.67
75688;HTU21D;64300;45.034;38.910;2022-12-22T01:53:02;1.52;106.86
75688;HTU21D;64300;45.034;38.910;2022-12-22T01:55:48;1.53;106.80
75688;HTU21D;64300;45.034;38.910;2022-12-22T01:58:36;1.51;106.79
75688;HTU21D;64300;45.034;38.910;2022-12-22T02:01:23;1.49;106.63
75688;HTU21D;64300;45.034;38.910;2022-12-22T02:04:08;1.47;106.59
75688;HTU21D;64300;45.034;38.910;2022-12-22T02:06:57;1.43;106.61
75688;HTU21D;64300;45.034;38.910;2022-12-22T02:13:52;1.37;106.72
75688;HTU21D;64300;45.034;38.910;2022-12-22T02:26:32;1.23;107.27
75688;HTU21D;64300;45.034;38.910;2022-12-22T02:29:24;1.22;107.35
75688;HTU21D;64300;45.034;38.910;2022-12-22T02:32:10;1.21;107.54
75688;HTU21D;64300;45.034;38.910;2022-12-22T02:34:54;1.19;107.43
75688;HTU21D;64300;45.034;38.910;2022-12-22T02:44:24;1.13;107.76
75688;HTU21D;64300;45.034;38.910;2022-12-22T02:47:20;1.11;108.06
75688;HTU21D;64300;45.034;38.910;2022-12-22T02:53:16;1.07;108.11
75688;HTU21D;64300;45.034;38.910;2022-12-22T02:56:05;1.05;108.19
75688;HTU21D;64300;45.034;38.910;2022-12-22T02:58:53;1.02;108.19
75688;HTU21D;64300;45.034;38.910;2022-12-22T03:01:39;1.02;108.37
75688;HTU21D;64300;45.034;38.910;2022-12-22T03:04:24;0.98;108.31
75688;HTU21D;64300;45.034;38.910;2022-12-22T03:07:08;0.98;108.54
75688;HTU21D;64300;45.034;38.910;2022-12-22T03:09:53;0.99;108.59
75688;HTU21D;64300;45.034;38.910;2022-12-22T03:12:37;0.97;108.59
75688;HTU21D;64300;45.034;38.910;2022-12-22T03:15:22;0.96;108.65
75688;HTU21D;64300;45.034;38.910;2022-12-22T03:18:08;0.96;108.61
75688;HTU21D;64300;45.034;38.910;2022-12-22T03:20:53;0.95;108.62
75688;HTU21D;64300;45.034;38.910;2022-12-22T03:23:38;0.92;108.64
75688;HTU21D;64300;45.034;38.910;2022-12-22T03:26:23;0.92;108.72
75688;HTU21D;64300;45.034;38.910;2022-12-22T03:28:48;0.91;108.78
75688;HTU21D;64300;45.034;38.910;2022-12-22T03:31:14;0.91;108.79
75688;HTU21D;64300;45.034;38.910;2022-12-22T03:33:40;0.92;108.71
75688;HTU21D;64300;45.034;38.910;2022-12-22T03:36:07;0.91;108.77
75688;HTU21D;64300;45.034;38.910;2022-12-22T03:38:33;0.91;108.86
75688;HTU21D;64300;45.034;38.910;2022-12-22T03:40:58;0.90;108.91
75688;HTU21D;64300;45.034;38.910;2022-12-22T03:43:24;0.91;108.96
75688;HTU21D;64300;45.034;38.910;2022-12-22T03:46:13;0.91;109.30
75688;HTU21D;64300;45.034;38.910;2022-12-22T03:49:02;0.90;109.32
75688;HTU21D;64300;45.034;38.910;2022-12-22T03:54:07;0.89;109.32
75688;HTU21D;64300;45.034;38.910;2022-12-22T03:56:34;0.84;109.27
75688;HTU21D;64300;45.034;38.910;2022-12-22T03:59:00;0.81;109.49
75688;HTU21D;64300;45.034;38.910;2022-12-22T04:01:26;0.77;109.43
75688;HTU21D;64300;45.034;38.910;2022-12-22T04:03:52;0.77;109.79
75688;HTU21D;64300;45.034;38.910;2022-12-22T04:06:18;0.76;109.78
75688;HTU21D;64300;45.034;38.910;2022-12-22T04:08:44;0.77;109.73
75688;HTU21D;64300;45.034;38.910;2022-12-22T04:11:14;0.77;109.83
75688;HTU21D;64300;45.034;38.910;2022-12-22T04:14:00;0.80;109.77
75688;HTU21D;64300;45.034;38.910;2022-12-22T04:16:25;0.79;109.69
75688;HTU21D;64300;45.034;38.910;2022-12-22T04:18:51;0.75;109.73
75688;HTU21D;64300;45.034;38.910;2022-12-22T04:21:17;0.73;109.88
75688;HTU21D;64300;45.034;38.910;2022-12-22T04:23:53;0.74;110.04
75688;HTU21D;64300;45.034;38.910;2022-12-22T04:26:21;0.75;110.11
75688;HTU21D;64300;45.034;38.910;2022-12-22T04:28:48;0.75;110.07
75688;HTU21D;64300;45.034;38.910;2022-12-22T04:31:14;0.76;110.05
75688;HTU21D;64300;45.034;38.910;2022-12-22T04:33:40;0.75;110.04
75688;HTU21D;64300;45.034;38.910;2022-12-22T04:36:07;0.75;110.02
75688;HTU21D;64300;45.034;38.910;2022-12-22T04:38:34;0.75;109.99
75688;HTU21D;64300;45.034;38.910;2022-12-22T04:41:00;0.75;109.98
75688;HTU21D;64300;45.034;38.910;2022-12-22T04:43:26;0.74;110.07
75688;HTU21D;64300;45.034;38.910;2022-12-22T04:45:53;0.75;110.13
75688;HTU21D;64300;45.034;38.910;2022-12-22T04:48:19;0.74;110.23
75688;HTU21D;64300;45.034;38.910;2022-12-22T04:50:49;0.75;110.33
75688;HTU21D;64300;45.034;38.910;2022-12-22T04:53:18;0.76;110.41
75688;HTU21D;64300;45.034;38.910;2022-12-22T04:55:49;0.76;110.49
75688;HTU21D;64300;45.034;38.910;2022-12-22T04:58:16;0.75;110.46
75688;HTU21D;64300;45.034;38.910;2022-12-22T05:00:42;0.75;110.50
75688;HTU21D;64300;45.034;38.910;2022-12-22T05:03:08;0.71;110.40
75688;HTU21D;64300;45.034;38.910;2022-12-22T05:05:36;0.71;110.71
75688;HTU21D;64300;45.034;38.910;2022-12-22T05:08:02;0.69;110.89
75688;HTU21D;64300;45.034;38.910;2022-12-22T05:10:29;0.72;111.00
75688;HTU21D;64300;45.034;38.910;2022-12-22T05:12:55;0.77;111.13
75688;HTU21D;64300;45.034;38.910;2022-12-22T05:15:31;0.79;111.20
75688;HTU21D;64300;45.034;38.910;2022-12-22T05:17:58;0.81;111.12
75688;HTU21D;64300;45.034;38.910;2022-12-22T05:20:25;0.84;111.14
75688;HTU21D;64300;45.034;38.910;2022-12-22T05:22:51;0.87;111.16
75688;HTU21D;64300;45.034;38.910;2022-12-22T05:25:18;0.90;111.23
75688;HTU21D;64300;45.034;38.910;2022-12-22T05:27:50;0.91;111.30
75688;HTU21D;64300;45.034;38.910;2022-12-22T05:30:17;0.96;111.32
75688;HTU21D;64300;45.034;38.910;2022-12-22T05:32:43;1.01;111.41
75688;HTU21D;64300;45.034;38.910;2022-12-22T05:35:09;1.05;111.52
75688;HTU21D;64300;45.034;38.910;2022-12-22T05:37:38;1.08;111.57
75688;HTU21D;64300;45.034;38.910;2022-12-22T05:40:05;1.14;111.65
75688;HTU21D;64300;45.034;38.910;2022-12-22T05:42:32;1.19;111.63
75688;HTU21D;64300;45.034;38.910;2022-12-22T05:45:11;1.22;111.70
75688;HTU21D;64300;45.034;38.910;2022-12-22T05:47:38;1.26;111.63
75688;HTU21D;64300;45.034;38.910;2022-12-22T05:50:06;1.31;111.64
75688;HTU21D;64300;45.034;38.910;2022-12-22T05:52:32;1.35;111.65
75688;HTU21D;64300;45.034;38.910;2022-12-22T05:54:58;1.39;111.61
75688;HTU21D;64300;45.034;38.910;2022-12-22T05:57:23;1.42;111.60
75688;HTU21D;64300;45.034;38.910;2022-12-22T05:59:49;1.48;111.56
75688;HTU21D;64300;45.034;38.910;2022-12-22T06:02:15;1.52;111.56
75688;HTU21D;64300;45.034;38.910;2022-12-22T06:04:41;1.57;111.61
75688;HTU21D;64300;45.034;38.910;2022-12-22T06:07:07;1.62;111.55
75688;HTU21D;64300;45.034;38.910;2022-12-22T06:09:33;1.64;111.49
75688;HTU21D;64300;45.034;38.910;2022-12-22T06:11:59;1.70;111.52
75688;HTU21D;64300;45.034;38.910;2022-12-22T06:14:25;1.72;111.42
75688;HTU21D;64300;45.034;38.910;2022-12-22T06:16:51;1.79;111.60
75688;HTU21D;64300;45.034;38.910;2022-12-22T06:19:17;1.85;111.84
75688;HTU21D;64300;45.034;38.910;2022-12-22T06:21:42;1.94;112.06
75688;HTU21D;64300;45.034;38.910;2022-12-22T06:24:08;2.00;112.21
75688;HTU21D;64300;45.034;38.910;2022-12-22T06:26:34;2.10;112.43
75688;HTU21D;64300;45.034;38.910;2022-12-22T06:29:01;2.20;112.54
75688;HTU21D;64300;45.034;38.910;2022-12-22T06:31:27;2.27;112.36
75688;HTU21D;64300;45.034;38.910;2022-12-22T06:33:53;2.34;112.21
75688;HTU21D;64300;45.034;38.910;2022-12-22T06:36:19;2.41;112.03
75688;HTU21D;64300;45.034;38.910;2022-12-22T06:38:48;2.49;111.93
75688;HTU21D;64300;45.034;38.910;2022-12-22T06:41:14;2.53;111.77
75688;HTU21D;64300;45.034;38.910;2022-12-22T06:44:02;2.60;111.67
75688;HTU21D;64300;45.034;38.910;2022-12-22T06:46:28;2.66;111.62
75688;HTU21D;64300;45.034;38.910;2022-12-22T06:48:54;2.73;111.62
75688;HTU21D;64300;45.034;38.910;2022-12-22T06:51:20;2.80;111.52
75688;HTU21D;64300;45.034;38.910;2022-12-22T06:53:46;2.88;111.56
75688;HTU21D;64300;45.034;38.910;2022-12-22T06:56:12;2.96;111.58
75688;HTU21D;64300;45.034;38.910;2022-12-22T06:58:38;3.04;111.58
75688;HTU21D;64300;45.034;38.910;2022-12-22T07:01:04;3.08;111.34
75688;HTU21D;64300;45.034;38.910;2022-12-22T07:03:30;3.11;111.43
75688;HTU21D;64300;45.034;38.910;2022-12-22T07:05:56;3.19;111.69
75688;HTU21D;64300;45.034;38.910;2022-12-22T07:08:21;3.28;111.65
75688;HTU21D;64300;45.034;38.910;2022-12-22T07:10:47;3.41;111.66
75688;HTU21D;64300;45.034;38.910;2022-12-22T07:13:32;3.49;111.32
75688;HTU21D;64300;45.034;38.910;2022-12-22T07:16:03;3.58;111.03
75688;HTU21D;64300;45.034;38.910;2022-12-22T07:18:31;3.65;110.84
75688;HTU21D;64300;45.034;38.910;2022-12-22T07:20:59;3.72;110.68
75688;HTU21D;64300;45.034;38.910;2022-12-22T07:23:25;3.80;110.57
75688;HTU21D;64300;45.034;38.910;2022-12-22T07:25:52;3.88;110.52
75688;HTU21D;64300;45.034;38.910;2022-12-22T07:28:17;3.97;110.34
75688;HTU21D;64300;45.034;38.910;2022-12-22T07:30:43;4.04;110.05
75688;HTU21D;64300;45.034;38.910;2022-12-22T07:33:09;4.10;109.91
75688;HTU21D;64300;45.034;38.910;2022-12-22T07:35:35;4.19;109.78
75688;HTU21D;64300;45.034;38.910;2022-12-22T07:38:01;4.24;109.55
75688;HTU21D;64300;45.034;38.910;2022-12-22T07:40:27;4.31;109.37
75688;HTU21D;64300;45.034;38.910;2022-12-22T07:42:57;4.39;109.36
75688;HTU21D;64300;45.034;38.910;2022-12-22T07:45:32;4.46;109.11
75688;HTU21D;64300;45.034;38.910;2022-12-22T07:47:59;4.52;108.89
75688;HTU21D;64300;45.034;38.910;2022-12-22T07:50:25;4.59;108.77
75688;HTU21D;64300;45.034;38.910;2022-12-22T07:52:54;4.63;108.76
75688;HTU21D;64300;45.034;38.910;2022-12-22T07:55:22;4.73;108.65
75688;HTU21D;64300;45.034;38.910;2022-12-22T07:57:48;4.81;108.66
75688;HTU21D;64300;45.034;38.910;2022-12-22T08:00:15;4.92;108.69
75688;HTU21D;64300;45.034;38.910;2022-12-22T08:02:41;5.01;108.43
75688;HTU21D;64300;45.034;38.910;2022-12-22T08:05:07;5.10;108.41
75688;HTU21D;64300;45.034;38.910;2022-12-22T08:07:34;5.20;108.20
75688;HTU21D;64300;45.034;38.910;2022-12-22T08:10:00;5.33;107.90
75688;HTU21D;64300;45.034;38.910;2022-12-22T08:12:26;5.42;107.72
75688;HTU21D;64300;45.034;38.910;2022-12-22T08:14:54;5.54;107.43
75688;HTU21D;64300;45.034;38.910;2022-12-22T08:17:22;5.64;106.92
75688;HTU21D;64300;45.034;38.910;2022-12-22T08:19:48;5.71;106.50
75688;HTU21D;64300;45.034;38.910;2022-12-22T08:22:14;5.79;106.27
75688;HTU21D;64300;45.034;38.910;2022-12-22T08:24:40;5.86;105.97
75688;HTU21D;64300;45.034;38.910;2022-12-22T08:27:12;5.95;105.81
75688;HTU21D;64300;45.034;38.910;2022-12-22T08:29:45;6.06;105.68
75688;HTU21D;64300;45.034;38.910;2022-12-22T08:32:12;6.11;105.40
75688;HTU21D;64300;45.034;38.910;2022-12-22T08:34:38;6.20;105.14
75688;HTU21D;64300;45.034;38.910;2022-12-22T08:37:06;6.28;104.86
75688;HTU21D;64300;45.034;38.910;2022-12-22T08:39:37;6.37;104.44
75688;HTU21D;64300;45.034;38.910;2022-12-22T08:42:06;6.45;104.30
75688;HTU21D;64300;45.034;38.910;2022-12-22T08:44:35;6.54;104.08
75688;HTU21D;64300;45.034;38.910;2022-12-22T08:47:01;6.61;103.83
75688;HTU21D;64300;45.034;38.910;2022-12-22T08:49:27;6.67;103.47
75688;HTU21D;64300;45.034;38.910;2022-12-22T08:51:53;6.72;103.09
75688;HTU21D;64300;45.034;38.910;2022-12-22T08:54:19;6.74;102.85
75688;HTU21D;64300;45.034;38.910;2022-12-22T08:56:46;6.79;102.57
75688;HTU21D;64300;45.034;38.910;2022-12-22T08:59:12;6.82;102.31
75688;HTU21D;64300;45.034;38.910;2022-12-22T09:01:40;6.84;102.22
75688;HTU21D;64300;45.034;38.910;2022-12-22T09:04:13;6.87;102.14
75688;HTU21D;64300;45.034;38.910;2022-12-22T09:06:39;6.90;102.02
75688;HTU21D;64300;45.034;38.910;2022-12-22T09:09:06;6.93;102.07
75688;HTU21D;64300;45.034;38.910;2022-12-22T09:11:33;6.91;102.21
75688;HTU21D;64300;45.034;38.910;2022-12-22T09:14:00;6.95;102.30
75688;HTU21D;64300;45.034;38.910;2022-12-22T09:16:28;6.98;102.19
75688;HTU21D;64300;45.034;38.910;2022-12-22T09:18:54;7.02;102.05
75688;HTU21D;64300;45.034;38.910;2022-12-22T09:21:21;7.07;101.94
75688;HTU21D;64300;45.034;38.910;2022-12-22T09:23:47;7.13;101.89
75688;HTU21D;64300;45.034;38.910;2022-12-22T09:26:14;7.19;101.96
75688;HTU21D;64300;45.034;38.910;2022-12-22T09:28:40;7.20;101.99
75688;HTU21D;64300;45.034;38.910;2022-12-22T09:31:06;7.24;101.99
75688;HTU21D;64300;45.034;38.910;2022-12-22T09:33:33;7.24;102.16
75688;HTU21D;64300;45.034;38.910;2022-12-22T09:36:05;7.27;102.11
75688;HTU21D;64300;45.034;38.910;2022-12-22T09:38:35;7.31;101.99
75688;HTU21D;64300;45.034;38.910;2022-12-22T09:41:54;7.38;101.73
75688;HTU21D;64300;45.034;38.910;2022-12-22T09:44:01;7.44;101.44
75688;HTU21D;64300;45.034;38.910;2022-12-22T09:46:30;7.49;100.99
75688;HTU21D;64300;45.034;38.910;2022-12-22T09:48:58;7.53;100.79
75688;HTU21D;64300;45.034;38.910;2022-12-22T09:51:24;7.57;100.68
75688;HTU21D;64300;45.034;38.910;2022-12-22T09:53:56;7.57;100.62
75688;HTU21D;64300;45.034;38.910;2022-12-22T09:56:25;7.59;99.99
75688;HTU21D;64300;45.034;38.910;2022-12-22T09:58:55;7.64;100.24
75688;HTU21D;64300;45.034;38.910;2022-12-22T10:01:25;7.71;100.03
75688;HTU21D;64300;45.034;38.910;2022-12-22T10:04:25;7.76;99.66
75688;HTU21D;64300;45.034;38.910;2022-12-22T10:06:56;7.81;99.63
75688;HTU21D;64300;45.034;38.910;2022-12-22T10:09:25;7.86;99.38
75688;HTU21D;64300;45.034;38.910;2022-12-22T10:11:54;7.90;99.19
75688;HTU21D;64300;45.034;38.910;2022-12-22T10:14:24;7.94;98.99
75688;HTU21D;64300;45.034;38.910;2022-12-22T10:19:40;8.02;98.56
75688;HTU21D;64300;45.034;38.910;2022-12-22T10:22:30;8.07;98.14
75688;HTU21D;64300;45.034;38.910;2022-12-22T10:25:00;8.12;98.10
75688;HTU21D;64300;45.034;38.910;2022-12-22T10:27:30;8.15;97.88
75688;HTU21D;64300;45.034;38.910;2022-12-22T10:33:00;8.24;97.44
75688;HTU21D;64300;45.034;38.910;2022-12-22T10:35:52;8.27;97.40
75688;HTU21D;64300;45.034;38.910;2022-12-22T10:40:54;8.31;97.63
75688;HTU21D;64300;45.034;38.910;2022-12-22T10:45:55;8.37;97.26
75688;HTU21D;64300;45.034;38.910;2022-12-22T10:48:30;8.42;96.68
75688;HTU21D;64300;45.034;38.910;2022-12-22T10:50:58;8.47;96.67
75688;HTU21D;64300;45.034;38.910;2022-12-22T10:53:57;8.53;96.19
75688;HTU21D;64300;45.034;38.910;2022-12-22T10:56:26;8.56;96.01
75688;HTU21D;64300;45.034;38.910;2022-12-22T10:58:56;8.59;95.79
75688;HTU21D;64300;45.034;38.910;2022-12-22T11:01:33;8.60;95.59
75688;HTU21D;64300;45.034;38.910;2022-12-22T11:04:22;8.65;95.17
75688;HTU21D;64300;45.034;38.910;2022-12-22T11:06:48;8.68;95.07
75688;HTU21D;64300;45.034;38.910;2022-12-22T11:09:15;8.72;94.63
75688;HTU21D;64300;45.034;38.910;2022-12-22T11:11:48;8.73;94.66
75688;HTU21D;64300;45.034;38.910;2022-12-22T11:14:43;8.71;94.87
75688;HTU21D;64300;45.034;38.910;2022-12-22T11:17:21;8.71;94.71
75688;HTU21D;64300;45.034;38.910;2022-12-22T11:31:50;8.81;93.87
75688;HTU21D;64300;45.034;38.910;2022-12-22T11:37:50;8.83;93.30
75688;HTU21D;64300;45.034;38.910;2022-12-22T11:43:03;8.87;93.20
75688;HTU21D;64300;45.034;38.910;2022-12-22T11:50:45;8.86;92.92
75688;HTU21D;64300;45.034;38.910;2022-12-22T11:56:23;8.88;92.74
75688;HTU21D;64300;45.034;38.910;2022-12-22T12:07:30;8.93;91.98
75688;HTU21D;64300;45.034;38.910;2022-12-22T12:10:16;8.94;91.72
75688;HTU21D;64300;45.034;38.910;2022-12-22T12:15:34;8.95;91.56
75688;HTU21D;64300;45.034;38.910;2022-12-22T12:31:35;8.85;90.05
75688;HTU21D;64300;45.034;38.910;2022-12-22T12:34:04;8.83;89.95
75688;HTU21D;64300;45.034;38.910;2022-12-22T12:44:49;8.75;89.35
75688;HTU21D;64300;45.034;38.910;2022-12-22T12:47:31;8.73;89.10
75688;HTU21D;64300;45.034;38.910;2022-12-22T12:50:30;8.71;88.82
75688;HTU21D;64300;45.034;38.910;2022-12-22T12:57:49;8.57;89.06
75688;HTU21D;64300;45.034;38.910;2022-12-22T13:00:44;8.49;88.81
75688;HTU21D;64300;45.034;38.910;2022-12-22T13:06:00;8.38;88.61
75688;HTU21D;64300;45.034;38.910;2022-12-22T13:08:28;8.34;88.35
75688;HTU21D;64300;45.034;38.910;2022-12-22T13:21:00;8.09;88.37
75688;HTU21D;64300;45.034;38.910;2022-12-22T13:26:09;8.00;88.36
75688;HTU21D;64300;45.034;38.910;2022-12-22T13:28:40;7.96;88.34
75688;HTU21D;64300;45.034;38.910;2022-12-22T13:31:18;7.91;88.24
75688;HTU21D;64300;45.034;38.910;2022-12-22T13:33:45;7.86;88.39
75688;HTU21D;64300;45.034;38.910;2022-12-22T13:36:24;7.82;88.30
75688;HTU21D;64300;45.034;38.910;2022-12-22T13:39:10;7.76;88.34
75688;HTU21D;64300;45.034;38.910;2022-12-22T13:41:39;7.71;88.47
75688;HTU21D;64300;45.034;38.910;2022-12-22T13:44:07;7.68;88.51
75688;HTU21D;64300;45.034;38.910;2022-12-22T13:46:37;7.61;88.59
75688;HTU21D;64300;45.034;38.910;2022-12-22T13:49:06;7.58;88.65
75688;HTU21D;64300;45.034;38.910;2022-12-22T13:51:38;7.54;88.67
75688;HTU21D;64300;45.034;38.910;2022-12-22T13:54:21;7.49;87.96
75688;HTU21D;64300;45.034;38.910;2022-12-22T13:56:51;7.45;88.90
75688;HTU21D;64300;45.034;38.910;2022-12-22T13:59:35;7.42;88.89
75688;HTU21D;64300;45.034;38.910;2022-12-22T14:02:15;7.38;89.11
75688;HTU21D;64300;45.034;38.910;2022-12-22T14:04:44;7.34;89.28
75688;HTU21D;64300;45.034;38.910;2022-12-22T14:07:18;7.30;89.36
75688;HTU21D;64300;45.034;38.910;2022-12-22T14:09:47;7.29;89.71
75688;HTU21D;64300;45.034;38.910;2022-12-22T14:12:23;7.29;89.36
75688;HTU21D;64300;45.034;38.910;2022-12-22T14:14:51;7.32;89.91
75688;HTU21D;64300;45.034;38.910;2022-12-22T14:17:31;7.34;89.47
75688;HTU21D;64300;45.034;38.910;2022-12-22T14:20:00;7.34;89.81
75688;HTU21D;64300;45.034;38.910;2022-12-22T14:22:40;7.35;89.82
75688;HTU21D;64300;45.034;38.910;2022-12-22T14:25:17;7.39;89.74
75688;HTU21D;64300;45.034;38.910;2022-12-22T14:27:47;7.39;89.79
75688;HTU21D;64300;45.034;38.910;2022-12-22T14:32:47;7.35;89.81
75688;HTU21D;64300;45.034;38.910;2022-12-22T14:37:49;7.35;90.03
75688;HTU21D;64300;45.034;38.910;2022-12-22T14:40:38;7.34;89.77
75688;HTU21D;64300;45.034;38.910;2022-12-22T14:43:06;7.33;89.75
75688;HTU21D;64300;45.034;38.910;2022-12-22T14:45:38;7.34;90.30
75688;HTU21D;64300;45.034;38.910;2022-12-22T14:48:04;7.35;90.25
75688;HTU21D;64300;45.034;38.910;2022-12-22T14:50:33;7.33;90.45
75688;HTU21D;64300;45.034;38.910;2022-12-22T14:53:01;7.29;90.53
75688;HTU21D;64300;45.034;38.910;2022-12-22T14:55:32;7.27;90.65
75688;HTU21D;64300;45.034;38.910;2022-12-22T14:58:14;7.29;90.62
75688;HTU21D;64300;45.034;38.910;2022-12-22T15:00:46;7.32;90.73
75688;HTU21D;64300;45.034;38.910;2022-12-22T15:03:31;7.30;90.60
75688;HTU21D;64300;45.034;38.910;2022-12-22T15:08:52;7.33;90.73
75688;HTU21D;64300;45.034;38.910;2022-12-22T15:11:21;7.32;90.76
75688;HTU21D;64300;45.034;38.910;2022-12-22T15:13:49;7.33;90.79
75688;HTU21D;64300;45.034;38.910;2022-12-22T15:16:20;7.32;90.76
75688;HTU21D;64300;45.034;38.910;2022-12-22T15:18:48;7.30;90.77
75688;HTU21D;64300;45.034;38.910;2022-12-22T15:21:15;7.29;90.71
75688;HTU21D;64300;45.034;38.910;2022-12-22T15:23:42;7.29;90.71
75688;HTU21D;64300;45.034;38.910;2022-12-22T15:26:09;7.26;90.93
75688;HTU21D;64300;45.034;38.910;2022-12-22T15:28:35;7.28;90.93
75688;HTU21D;64300;45.034;38.910;2022-12-22T15:31:01;7.23;91.31
75688;HTU21D;64300;45.034;38.910;2022-12-22T15:33:28;7.19;91.14
75688;HTU21D;64300;45.034;38.910;2022-12-22T15:35:54;7.18;91.37
75688;HTU21D;64300;45.034;38.910;2022-12-22T15:38:21;7.17;91.39
75688;HTU21D;64300;45.034;38.910;2022-12-22T15:40:48;7.13;91.58
75688;HTU21D;64300;45.034;38.910;2022-12-22T15:43:14;7.10;91.64
75688;HTU21D;64300;45.034;38.910;2022-12-22T15:45:41;7.09;91.72
75688;HTU21D;64300;45.034;38.910;2022-12-22T15:48:15;7.11;91.82
75688;HTU21D;64300;45.034;38.910;2022-12-22T15:50:44;7.11;91.90
75688;HTU21D;64300;45.034;38.910;2022-12-22T15:53:17;7.14;91.86
75688;HTU21D;64300;45.034;38.910;2022-12-22T15:55:49;7.13;91.93
75688;HTU21D;64300;45.034;38.910;2022-12-22T15:58:21;7.12;91.88
75688;HTU21D;64300;45.034;38.910;2022-12-22T16:00:48;7.10;91.78
75688;HTU21D;64300;45.034;38.910;2022-12-22T16:03:15;7.09;91.68
75688;HTU21D;64300;45.034;38.910;2022-12-22T16:05:40;7.05;91.85
75688;HTU21D;64300;45.034;38.910;2022-12-22T16:08:18;7.00;92.19
75688;HTU21D;64300;45.034;38.910;2022-12-22T16:10:45;6.96;92.14
75688;HTU21D;64300;45.034;38.910;2022-12-22T16:13:13;6.93;92.29
75688;HTU21D;64300;45.034;38.910;2022-12-22T16:15:40;6.89;92.49
75688;HTU21D;64300;45.034;38.910;2022-12-22T16:18:09;6.88;92.52
75688;HTU21D;64300;45.034;38.910;2022-12-22T16:20:38;6.87;92.53
75688;HTU21D;64300;45.034;38.910;2022-12-22T16:23:09;6.88;92.45
75688;HTU21D;64300;45.034;38.910;2022-12-22T16:25:37;6.84;92.43
75688;HTU21D;64300;45.034;38.910;2022-12-22T16:28:04;6.83;92.51
75688;HTU21D;64300;45.034;38.910;2022-12-22T16:30:32;6.80;92.79
75688;HTU21D;64300;45.034;38.910;2022-12-22T16:33:01;6.80;92.79
75688;HTU21D;64300;45.034;38.910;2022-12-22T16:35:28;6.74;92.98
75688;HTU21D;64300;45.034;38.910;2022-12-22T16:37:55;6.69;93.07
75688;HTU21D;64300;45.034;38.910;2022-12-22T16:40:22;6.67;93.27
75688;HTU21D;64300;45.034;38.910;2022-12-22T16:42:59;6.67;93.47
75688;HTU21D;64300;45.034;38.910;2022-12-22T16:45:29;6.66;93.68
75688;HTU21D;64300;45.034;38.910;2022-12-22T16:47:58;6.66;93.62
75688;HTU21D;64300;45.034;38.910;2022-12-22T16:50:27;6.64;94.01
75688;HTU21D;64300;45.034;38.910;2022-12-22T16:53:02;6.61;93.85
75688;HTU21D;64300;45.034;38.910;2022-12-22T16:55:30;6.60;93.65
75688;HTU21D;64300;45.034;38.910;2022-12-22T16:57:56;6.57;93.55
75688;HTU21D;64300;45.034;38.910;2022-12-22T17:00:28;6.57;93.68
75688;HTU21D;64300;45.034;38.910;2022-12-22T17:02:58;6.54;93.90
75688;HTU21D;64300;45.034;38.910;2022-12-22T17:05:55;6.52;93.91
75688;HTU21D;64300;45.034;38.910;2022-12-22T17:08:42;6.51;94.43
75688;HTU21D;64300;45.034;38.910;2022-12-22T17:11:09;6.45;94.14
75688;HTU21D;64300;45.034;38.910;2022-12-22T17:13:38;6.42;94.36
75688;HTU21D;64300;45.034;38.910;2022-12-22T17:16:05;6.39;94.65
75688;HTU21D;64300;45.034;38.910;2022-12-22T17:18:31;6.35;94.64
75688;HTU21D;64300;45.034;38.910;2022-12-22T17:20:59;6.33;94.76
75688;HTU21D;64300;45.034;38.910;2022-12-22T17:23:34;6.33;94.86
75688;HTU21D;64300;45.034;38.910;2022-12-22T17:26:04;6.30;94.57
75688;HTU21D;64300;45.034;38.910;2022-12-22T17:28:32;6.26;94.46
75688;HTU21D;64300;45.034;38.910;2022-12-22T17:31:01;6.22;94.53
75688;HTU21D;64300;45.034;38.910;2022-12-22T17:33:27;6.19;94.72
75688;HTU21D;64300;45.034;38.910;2022-12-22T17:35:53;6.14;94.72
75688;HTU21D;64300;45.034;38.910;2022-12-22T17:38:21;6.11;94.65
75688;HTU21D;64300;45.034;38.910;2022-12-22T17:40:49;6.02;94.59
75688;HTU21D;64300;45.034;38.910;2022-12-22T17:43:16;5.96;94.69
75688;HTU21D;64300;45.034;38.910;2022-12-22T17:45:43;5.90;94.82
75688;HTU21D;64300;45.034;38.910;2022-12-22T17:48:13;5.84;94.97
75688;HTU21D;64300;45.034;38.910;2022-12-22T17:50:41;5.79;95.07